Home > Products > Valid Products > TAF

000
FTUS45 KCYS 190500
TAFCYS
TAF
KCYS 190538Z 1906/2006 33015G22KT P6SM BKN080 OVC200
     FM190700 35014KT P6SM BKN080
     FM191700 VRB05KT P6SM VCTS BKN050CB
     FM192100 18010KT P6SM VCTS BKN060CB
     FM200000 16008KT P6SM SCT060=



000
FTUS45 KCYS 190500
TAFRWL
TAF
KRWL 190538Z 1906/2006 25008KT P6SM OVC100
     FM191700 25012KT P6SM VCSH BKN060
     FM200000 25008KT P6SM SCT060=



000
FTUS45 KCYS 190500
TAFLAR
TAF
KLAR 190538Z 1906/2006 35012KT P6SM BKN080
     FM191000 VRB05KT P6SM BKN080
     FM191800 23012KT P6SM VCSH BKN050
     FM200000 21008KT P6SM SCT050=



000
FTUS45 KCYS 190500
TAFCYS
TAF
KCYS 190538Z 1906/2006 33015G22KT P6SM BKN080 OVC200
     FM190700 35014KT P6SM BKN080
     FM191700 VRB05KT P6SM VCTS BKN050CB
     FM192100 18010KT P6SM VCTS BKN060CB
     FM200000 16008KT P6SM SCT060=



000
FTUS45 KCYS 190400 AAA
TAFRWL
TAF AMD
KRWL 190408Z 1904/1924 25008KT P6SM OVC100
     FM191700 25014KT P6SM VCSH BKN060=



000
FTUS45 KCYS 190400 AAA
TAFRWL
TAF AMD
KRWL 190407Z 1904/1924 25008KT P6SM OVC100
     FM191700 25014KT P6SM VCSH BKN060=



000
FTUS45 KCYS 190400 AAA
TAFLAR
TAF AMD
KLAR 190406Z 1904/1924 36014KT P6SM OVC200
     FM190600 35014KT P6SM BKN080
     FM191600 VRB05KT P6SM VCSH BKN050=



000
FTUS45 KCYS 182300
TAFCYS
TAF
KCYS 182328Z 1900/1924 23014G22KT P6SM SCT080
     FM190200 24010KT P6SM BKN200
     FM190400 27010KT P6SM BKN200
     FM190500 33015G22KT P6SM BKN080 OVC200
     FM190700 35014KT P6SM BKN080
     FM191700 VRB05KT P6SM VCSH BKN050=



000
FTUS45 KCYS 182300
TAFCYS
TAF
KCYS 182328Z 1900/1924 23014G22KT P6SM SCT080
     FM190200 24010KT P6SM BKN200
     FM190400 27010KT P6SM BKN200
     FM190500 33015G22KT P6SM BKN080 OVC200
     FM190700 35014KT P6SM BKN080
     FM191700 VRB05KT P6SM VCSH BKN050=



000
FTUS45 KCYS 182300
TAFLAR
TAF
KLAR 182328Z 1900/1924 23014G22KT P6SM SKC
     FM190300 27010KT P6SM BKN200
     FM190400 33015G22KT P6SM BKN080 OVC200
     FM190600 35014KT P6SM BKN080
     FM191600 VRB05KT P6SM VCSH BKN050=



000
FTUS45 KCYS 182300
TAFRWL
TAF
KRWL 182328Z 1900/1924 26022G30KT P6SM BKN080
     FM190500 25008KT P6SM OVC100
     FM191700 25014KT P6SM VCSH BKN060=



000
FTUS45 KCYS 181700
TAFRWL
TAF
KRWL 181726Z 1818/1918 22029G40KT P6SM FEW080 BKN200
     FM190100 26018G30KT P6SM BKN080
     FM190500 27008KT P6SM OVC100=



000
FTUS45 KCYS 181700
TAFLAR
TAF
KLAR 181726Z 1818/1918 23023G32KT P6SM SCT250
     FM190000 22013G22KT P6SM BKN250
     FM190500 22006KT P6SM BKN080 OVC200=



000
FTUS45 KCYS 181700
TAFCYS
TAF
KCYS 181726Z 1818/1918 22017G27KT P6SM BKN200
     FM181900 23018G30KT P6SM SCT080
     FM190300 26010KT P6SM BKN200
     FM190900 31012KT P6SM BKN080 OVC200=



000
FTUS45 KCYS 181100 CCA
TAFLAR
TAF COR
KLAR 181159Z 1812/1912 22018G25KT P6SM BKN200
     FM181800 23024G35KT P6SM SCT080
     FM190200 22013G22KT P6SM BKN080
     FM190500 20010KT P6SM BKN080 OVC200=



000
FTUS45 KCYS 181100 RRA
TAFRWL
TAF
KRWL 181141Z 1812/1912 24011KT P6SM OVC200
     FM181400 23018G30KT P6SM OVC200
     FM181800 24029G43KT P6SM FEW080 BKN200
     FM190000 26018G30KT P6SM BKN080
     FM190500 27008KT P6SM OVC100=



000
FTUS45 KCYS 181100 RRA
TAFLAR
TAF
KLAR 181141Z 1812/1912 14010KT P6SM BKN200
     FM181500 22018G30KT P6SM SCT200
     FM181800 23024G35KT P6SM SCT080
     FM190200 22013G22KT P6SM BKN080
     FM190500 20010KT P6SM BKN080 OVC200=



000
FTUS45 KCYS 181100 RRA
TAFCYS
TAF
KCYS 181141Z 1812/1912 26006KT P6SM BKN200
     FM181500 22015G25KT P6SM BKN200
     FM181900 23018G30KT P6SM SCT080
     FM190200 26010KT P6SM BKN080
     FM190900 31012KT P6SM BKN080 OVC200=



000
FTUS45 KCYS 181100 RRA
TAFCYS
TAF
KCYS 181141Z 1812/1912 26006KT P6SM BKN200
     FM181500 22015G25KT P6SM BKN200
     FM181900 23018G30KT P6SM SCT080
     FM190200 26010KT P6SM BKN080
     FM190900 31012KT P6SM BKN080 OVC200=



000
FTUS45 KCYS 180500
TAFCYS
TAF
KCYS 180536Z 1806/1906 23008KT P6SM SCT200
     FM180800 26011KT P6SM FEW200
     FM181500 22015G25KT P6SM SKC
     FM181900 23018G30KT P6SM SCT080
     FM190200 26013KT P6SM BKN080=



000
FTUS45 KCYS 180500
TAFCYS
TAF
KCYS 180536Z 1806/1906 23008KT P6SM SCT200
     FM180800 26011KT P6SM FEW200
     FM181500 22015G25KT P6SM SKC
     FM181900 23018G30KT P6SM SCT080
     FM190200 26013KT P6SM BKN080=



000
FTUS45 KCYS 180500
TAFLAR
TAF
KLAR 180536Z 1806/1906 16008KT P6SM BKN200
     FM181100 18013KT P6SM SKC
     FM181500 22018G30KT P6SM SKC
     FM181800 23024G35KT P6SM SCT080
     FM190200 22013G22KT P6SM BKN080=



000
FTUS45 KCYS 180500
TAFRWL
TAF
KRWL 180536Z 1806/1906 24011KT P6SM SCT200
     FM181500 23018G30KT P6SM SCT090
     FM181800 24028G39KT P6SM SCT080
     FM190200 26018G30KT P6SM BKN080=



000
FTUS45 KCYS 172300
TAFCYS
TAF
KCYS 172338Z 1800/1824 19013G22KT P6SM SKC
     FM180200 23008KT P6SM SKC
     FM180800 26011KT P6SM SKC
     FM181500 22015G25KT P6SM SKC
     FM181900 23018G30KT P6SM SCT080=



000
FTUS45 KCYS 172300
TAFLAR
TAF
KLAR 172338Z 1800/1824 23014G24KT P6SM SKC
     FM180200 21011KT P6SM SKC
     FM181100 18013KT P6SM SKC
     FM181500 22018G30KT P6SM SKC
     FM181800 23024G35KT P6SM SCT080=



000
FTUS45 KCYS 172300
TAFCYS
TAF
KCYS 172338Z 1800/1824 19013G22KT P6SM SKC
     FM180200 23008KT P6SM SKC
     FM180800 26011KT P6SM SKC
     FM181500 22015G25KT P6SM SKC
     FM181900 23018G30KT P6SM SCT080=



000
FTUS45 KCYS 172300
TAFRWL
TAF
KRWL 172338Z 1800/1824 23018G28KT P6SM BKN130
     FM180200 24011KT P6SM SCT130
     FM181500 23018G30KT P6SM SCT090
     FM181800 24028G39KT P6SM SCT090=



000
FTUS45 KCYS 172200 AAA
TAFCYS
TAF AMD
KCYS 172222Z 1722/1818 20013G23KT P6SM SCT090
     FM180100 24012KT P6SM SCT120
     FM181400 25017G27KT P6SM SCT040=



000
FTUS45 KCYS 172200 AAA
TAFCYS
TAF AMD
KCYS 172222Z 1722/1818 20013G23KT P6SM SCT090
     FM180100 24012KT P6SM SCT120
     FM181400 25017G27KT P6SM SCT040=



000
FTUS45 KCYS 171700
TAFCYS
TAF
KCYS 171721Z 1718/1818 29010KT P6SM SKC
     FM171930 22014G25KT P6SM SCT040 SCT150
     FM172300 24012KT P6SM SCT120
     FM181400 25017G27KT P6SM SCT040=



000
FTUS45 KCYS 171700
TAFRWL
TAF
KRWL 171721Z 1718/1818 25012G22KT P6SM FEW150
     FM172000 24016G26KT P6SM SCT050
     FM180100 23011KT P6SM FEW080
     FM181500 25017G27KT P6SM SCT050=



000
FTUS45 KCYS 171700
TAFCYS
TAF
KCYS 171721Z 1718/1818 29010KT P6SM SKC
     FM171930 22014G25KT P6SM SCT040 SCT150
     FM172300 24012KT P6SM SCT120
     FM181400 25017G27KT P6SM SCT040=



000
FTUS45 KCYS 171700
TAFLAR
TAF
KLAR 171721Z 1718/1818 VRB05KT P6SM SCT150
     FM172000 24013G24KT P6SM SCT050
     FM180100 20011KT P6SM FEW080
     FM181500 27017G27KT P6SM SCT050=



000
FTUS45 KCYS 171500 AAD
TAFCYS
TAF AMD
KCYS 171505Z 1715/1812 20007KT P6SM SKC
     FM171800 22014G25KT P6SM SCT040 BKN100
     FM172300 24012KT P6SM SCT120=



000
FTUS45 KCYS 171400 AAC
TAFCYS
TAF AMD
KCYS 171435Z 1715/1812 20007KT 5SM BR BKN002
     FM171530 22008KT P6SM SCT005
     FM171630 24010KT P6SM SCT035
     FM171800 22014G25KT P6SM BKN100
     FM172300 24012KT P6SM SCT120=



000
FTUS45 KCYS 171400 AAC
TAFCYS
TAF AMD
KCYS 171435Z 1715/1812 20007KT 5SM BR BKN002
     FM171530 22008KT P6SM SCT005
     FM171630 24010KT P6SM SCT035
     FM171800 22014G25KT P6SM BKN100
     FM172300 24012KT P6SM SCT120=



000
FTUS45 KCYS 171300 AAB
TAFCYS
TAF AMD
KCYS 171341Z 1714/1812 23007KT 1/4SM FG OVC002
     FM171530 23008KT 2SM BR BKN003
     FM171630 24010KT P6SM BKN040
     FM171800 22014G25KT P6SM BKN100
     FM172300 24012KT P6SM SCT120=



000
FTUS45 KCYS 171200 AAA
TAFCYS
TAF AMD
KCYS 171254Z 1713/1812 20008KT P6SM BKN003
      TEMPO 1713/1714 1/4SM FG OVC002
     FM171430 24010KT P6SM BKN040
     FM171800 22014G25KT P6SM BKN100
     FM172300 24012KT P6SM SCT120=



000
FTUS45 KCYS 171200 AAA
TAFCYS
TAF AMD
KCYS 171254Z 1713/1812 20008KT P6SM BKN003
      TEMPO 1713/1714 1/4SM FG OVC002
     FM171430 24010KT P6SM BKN040
     FM171800 22014G25KT P6SM BKN100
     FM172300 24012KT P6SM SCT120=



000
FTUS45 KCYS 171200 CCA
TAFCYS
TAF COR
KCYS 171204Z 1712/1812 20008KT P6SM BKN003
      TEMPO 1712/1714 1SM BR OVC003
     FM171400 24010KT P6SM BKN040
     FM171800 22014G25KT P6SM BKN100
     FM172300 24012KT P6SM SCT120=



000
FTUS45 KCYS 171100 RRA
TAFRWL
TAF
KRWL 171141Z 1712/1812 02008KT P6SM BKN120
     FM171500 24018G29KT P6SM BKN080
     FM180200 23014G22KT P6SM SCT080=



000
FTUS45 KCYS 171100 RRA
TAFCYS
TAF
KCYS 171141Z 1712/1812 20008KT P6SM BKN003
      TEMPO 1712/1714 4SM BR OVC003
     FM171400 24010KT P6SM BKN040
     FM171800 22014G25KT P6SM BKN100
     FM172300 24012KT P6SM SCT120=



000
FTUS45 KCYS 171100 RRA
TAFLAR
TAF
KLAR 171141Z 1712/1812 16013KT P6SM FEW020 BKN120
     FM171300 27008KT P6SM SCT005 BKN040
     FM171800 24013G24KT P6SM SCT080
     FM180200 19010KT P6SM FEW080=



000
FTUS45 KCYS 170900 AAA
TAFLAR
TAF AMD
KLAR 170916Z 1709/1806 16013KT P6SM FEW020 BKN120
      TEMPO 1711/1713 2SM BR OVC025
     FM171300 27008KT P6SM BKN040
     FM171800 24013G24KT P6SM SCT080
     FM180200 19010KT P6SM FEW080=



000
FTUS45 KCYS 170900 AAA
TAFCYS
TAF AMD
KCYS 170905Z 1709/1806 16008KT P6SM BKN006
      TEMPO 1710/1713 2SM BR OVC006
     FM171400 24010KT P6SM BKN040
     FM171800 22010G20KT P6SM BKN040
     FM180200 24012KT P6SM SCT040=



000
FTUS45 KCYS 170500
TAFCYS
TAF
KCYS 170530Z 1706/1806 10005KT P6SM OVC045
     FM170800 19008KT 1SM BR OVC012
     FM171400 24010KT P6SM BKN040
     FM171800 22010G20KT P6SM BKN040
     FM180200 24012KT P6SM SCT040=



000
FTUS45 KCYS 170500
TAFCYS
TAF
KCYS 170530Z 1706/1806 10005KT P6SM OVC045
     FM170800 19008KT 1SM BR OVC012
     FM171400 24010KT P6SM BKN040
     FM171800 22010G20KT P6SM BKN040
     FM180200 24012KT P6SM SCT040=



000
FTUS45 KCYS 170500
TAFLAR
TAF
KLAR 170530Z 1706/1806 13013KT P6SM SCT020 BKN090
     FM170800 18010KT 2SM BR OVC025
     FM171300 27008KT P6SM BKN040
     FM171800 24013G24KT P6SM SCT080
     FM180200 19010KT P6SM FEW080=



000
FTUS45 KCYS 170500
TAFRWL
TAF
KRWL 170530Z 1706/1806 02008KT P6SM BKN120
     FM171500 24018G29KT P6SM BKN080
     FM180200 23014G22KT P6SM SCT080=



000
FTUS45 KCYS 170400 AAA
TAFLAR
TAF AMD
KLAR 170406Z 1704/1724 13012KT P6SM OVC019
     FM170800 18010KT 2SM BR OVC025
     FM171300 27008KT P6SM SCT040
     FM171800 24013G24KT P6SM SCT080=



000
FTUS45 KCYS 162300
TAFLAR
TAF
KLAR 162320Z 1700/1724 35010G20KT P6SM SCT050 BKN080
     FM170200 15007KT P6SM SCT080
     FM170300 16009KT P6SM OVC035
     FM170800 18010KT 2SM BR OVC025
     FM171300 27008KT P6SM SCT040
     FM171800 24013G24KT P6SM SCT080=



000
FTUS45 KCYS 162300
TAFRWL
TAF
KRWL 162320Z 1700/1724 30010G20KT P6SM SCT080 BKN100
     FM170200 05006KT P6SM SCT100
     FM170700 27007KT P6SM SCT080
     FM171500 24018G29KT P6SM SCT080=



000
FTUS45 KCYS 162300
TAFCYS
TAF
KCYS 162320Z 1700/1724 02015G24KT P6SM SCT050
     FM170200 12005KT P6SM SKC
     FM170400 22005KT P6SM OVC040
     FM170600 19008KT 1SM BR OVC012
     FM171400 24010KT P6SM SCT040
     FM171800 22010G20KT P6SM SCT040=



000
FTUS45 KCYS 162000 AAA
TAFLAR
TAF AMD
KLAR 162053Z 1621/1718 35012KT P6SM BKN050 BKN070
     FM170200 VRB05KT P6SM BKN100
     FM170800 17010KT 5SM BR BKN015
     FM171500 24015KT P6SM SCT020=



000
FTUS45 KCYS 162000 AAA
TAFRWL
TAF AMD
KRWL 162050Z 1621/1718 32011G21KT P6SM VCSH BKN060 BKN080
     FM170000 VRB05KT P6SM BKN060
     FM171500 25012KT P6SM SCT060=



000
FTUS45 KCYS 162000 AAD
TAFCYS
TAF AMD
KCYS 162047Z 1621/1718 36017G27KT P6SM SCT040
     FM170000 36015KT P6SM VCSH BKN040
     FM170200 VRB05KT P6SM BKN050
     FM171000 18008KT 5SM BR BKN010
     FM171500 24012KT P6SM SCT020=



000
FTUS45 KCYS 162000 AAD
TAFCYS
TAF AMD
KCYS 162047Z 1621/1718 36017G27KT P6SM SCT040
     FM170000 36015KT P6SM VCSH BKN040
     FM170200 VRB05KT P6SM BKN050
     FM171000 18008KT 5SM BR BKN010
     FM171500 24012KT P6SM SCT020=



000
FTUS45 KCYS 162000 AAC
TAFCYS
TAF AMD
KCYS 162014Z 1620/1718 34015G25KT P6SM SCT035
      TEMPO 1620/1622 1SM -SNRA BKN020
     FM162300 36015KT P6SM VCSH BKN040
     FM170200 VRB05KT P6SM BKN050
     FM171000 18008KT 5SM BR BKN010
     FM171500 24012KT P6SM SCT020=



000
FTUS45 KCYS 162000 AAC
TAFCYS
TAF AMD
KCYS 162014Z 1620/1718 34015G25KT P6SM SCT035
      TEMPO 1620/1622 1SM -SNRA BKN020
     FM162300 36015KT P6SM VCSH BKN040
     FM170200 VRB05KT P6SM BKN050
     FM171000 18008KT 5SM BR BKN010
     FM171500 24012KT P6SM SCT020=



000
FTUS45 KCYS 161800 AAB
TAFCYS
TAF AMD
KCYS 161842Z 1619/1718 34015G25KT 6SM -SNRA BKN035
      TEMPO 1619/1621 1SM -SN OVC015
     FM162300 36015KT P6SM VCSH BKN040
     FM170200 VRB05KT P6SM BKN050
     FM171000 18008KT 5SM BR BKN010
     FM171500 24012KT P6SM SCT020=



000
FTUS45 KCYS 161800 AAB
TAFCYS
TAF AMD
KCYS 161842Z 1619/1718 34015G25KT 6SM -SNRA BKN035
      TEMPO 1619/1621 1SM -SN OVC015
     FM162300 36015KT P6SM VCSH BKN040
     FM170200 VRB05KT P6SM BKN050
     FM171000 18008KT 5SM BR BKN010
     FM171500 24012KT P6SM SCT020=



000
FTUS45 KCYS 161800 AAA
TAFCYS
TAF AMD
KCYS 161801Z 1618/1718 34015G25KT P6SM VCSH BKN035
      TEMPO 1618/1620 5SM -SNRA OVC030
     FM162200 36015KT P6SM VCSH BKN040
     FM170200 VRB05KT P6SM BKN050
     FM171000 18008KT 5SM BR BKN010
     FM171500 24012KT P6SM SCT020=



000
FTUS45 KCYS 161800 AAA
TAFCYS
TAF AMD
KCYS 161801Z 1618/1718 34015G25KT P6SM VCSH BKN035
      TEMPO 1618/1620 5SM -SNRA OVC030
     FM162200 36015KT P6SM VCSH BKN040
     FM170200 VRB05KT P6SM BKN050
     FM171000 18008KT 5SM BR BKN010
     FM171500 24012KT P6SM SCT020=



000
FTUS45 KCYS 161700
TAFRWL
TAF
KRWL 161727Z 1618/1718 31008KT P6SM VCSH SCT015 BKN025
      TEMPO 1618/1620 2SM -SN BKN015
     FM170000 VRB05KT P6SM BKN060
     FM171500 25012KT P6SM SCT060=



000
FTUS45 KCYS 161700
TAFLAR
TAF
KLAR 161727Z 1618/1718 32015G25KT P6SM VCSH BKN035
     FM162100 31014KT P6SM VCSH BKN040
     FM170200 VRB05KT P6SM BKN100
     FM170800 17010KT 5SM BR BKN015
     FM171500 24015KT P6SM SCT020=



000
FTUS45 KCYS 161700
TAFCYS
TAF
KCYS 161727Z 1618/1718 34015G25KT P6SM VCSH BKN035
     FM162200 36015KT P6SM VCSH BKN040
     FM170200 VRB05KT P6SM BKN050
     FM171000 18008KT 5SM BR BKN010
     FM171500 24012KT P6SM SCT020=



000
FTUS45 KCYS 161700
TAFCYS
TAF
KCYS 161727Z 1618/1718 34015G25KT P6SM VCSH BKN035
     FM162200 36015KT P6SM VCSH BKN040
     FM170200 VRB05KT P6SM BKN050
     FM171000 18008KT 5SM BR BKN010
     FM171500 24012KT P6SM SCT020=



000
FTUS45 KCYS 161500 AAA
TAFRWL
TAF AMD
KRWL 161537Z 1616/1712 31008KT P6SM VCSH FEW020 BKN035 OVC050
      TEMPO 1616/1618 2SM -SN BKN015
     FM161900 29015G25KT P6SM SCT040 BKN060
     FM170200 VRB05KT P6SM OVC060=



000
FTUS45 KCYS 161100
TAFCYS
TAF
KCYS 161133Z 1612/1712 30014G23KT P6SM VCSH SCT030 OVC050
      TEMPO 1612/1614 3SM -RASN BKN025
     FM161700 31025G35KT P6SM SCT035 BKN060
     FM162000 34015KT P6SM VCSH BKN035
     FM170200 VRB05KT P6SM BKN060
     FM171000 18008KT 5SM BR SCT015 BKN050=



000
FTUS45 KCYS 161100
TAFCYS
TAF
KCYS 161133Z 1612/1712 30014G23KT P6SM VCSH SCT030 OVC050
      TEMPO 1612/1614 3SM -RASN BKN025
     FM161700 31025G35KT P6SM SCT035 BKN060
     FM162000 34015KT P6SM VCSH BKN035
     FM170200 VRB05KT P6SM BKN060
     FM171000 18008KT 5SM BR SCT015 BKN050=



000
FTUS45 KCYS 161100
TAFRWL
TAF
KRWL 161133Z 1612/1712 31008KT P6SM VCSH FEW020 BKN035 OVC050
     FM161900 29015G25KT P6SM SCT040 BKN060
     FM170200 VRB05KT P6SM OVC060=



000
FTUS45 KCYS 161100
TAFLAR
TAF
KLAR 161133Z 1612/1712 31012KT P6SM BKN035 OVC060
     FM161700 29025G35KT P6SM BKN060
     FM162100 31014KT P6SM SCT060
     FM170200 VRB05KT P6SM BKN100
     FM170700 17010KT P6SM SCT035 OVC100
      AMD NOT SKED=



    US Dept of Commerce
    National Oceanic and Atmospheric Administration
    National Weather Service
    1325 East West Highway
    Silver Spring, MD 20910
    Page Author: NWS Internet Services Team
Disclaimer
Information Quality
Credits
Glossary
Privacy Policy
Freedom of Information Act (FOIA)
About Us
Career Opportunities